createdAt,value
2023-04-22T00:01:09.477Z,101114.28
2023-04-22T00:03:36.734Z,101109.91
2023-04-22T00:06:03.641Z,101093.44
2023-04-22T00:08:30.083Z,101089.94
2023-04-22T00:10:56.784Z,101073.47
2023-04-22T00:13:23.219Z,101091.19
2023-04-22T00:15:50.140Z,101096.25
2023-04-22T00:18:16.588Z,101036.06
2023-04-22T00:20:44.136Z,101086.00
2023-04-22T00:23:11.805Z,101075.84
2023-04-22T00:25:40.744Z,101079.94
2023-04-22T00:28:07.626Z,101065.88
2023-04-22T00:30:35.505Z,101063.88
2023-04-22T00:33:02.112Z,101015.28
2023-04-22T00:35:28.578Z,101066.28
2023-04-22T00:37:55.019Z,101071.78
2023-04-22T00:40:21.888Z,101028.19
2023-04-22T00:42:50.732Z,101062.50
2023-04-22T00:45:21.118Z,101059.13
2023-04-22T00:47:49.022Z,101047.75
2023-04-22T00:50:16.263Z,101037.34
2023-04-22T00:52:42.818Z,101004.03
2023-04-22T00:55:09.810Z,101014.59
2023-04-22T00:57:37.101Z,101034.81
2023-04-22T01:00:05.417Z,101014.72
2023-04-22T01:02:32.709Z,101042.84
2023-04-22T01:05:00.037Z,101033.53
2023-04-22T01:07:26.596Z,100996.59
2023-04-22T01:09:53.521Z,101039.88
2023-04-22T01:12:20.016Z,101034.81
2023-04-22T01:14:46.579Z,100989.28
2023-04-22T01:17:14.370Z,101028.78
2023-04-22T01:19:43.388Z,101020.34
2023-04-22T01:22:13.004Z,101015.00
2023-04-22T01:24:39.753Z,101025.69
2023-04-22T01:27:06.364Z,101035.53
2023-04-22T01:29:33.210Z,101015.28
2023-04-22T01:32:00.677Z,100910.75
2023-04-22T01:34:28.240Z,101010.66
2023-04-22T01:36:54.928Z,101011.66
2023-04-22T01:39:21.640Z,100980.56
2023-04-22T01:41:48.477Z,101005.72
2023-04-22T01:44:14.929Z,100995.19
2023-04-22T01:46:41.364Z,101004.31
2023-04-22T01:49:07.771Z,100992.09
2023-04-22T01:51:34.270Z,100968.94
2023-04-22T01:54:03.896Z,100945.16
2023-04-22T01:56:30.344Z,100972.00
2023-04-22T01:58:56.801Z,100975.66
2023-04-22T02:01:23.252Z,100984.78
2023-04-22T02:03:49.770Z,100972.97
2023-04-22T02:06:16.229Z,100983.25
2023-04-22T02:08:42.644Z,100907.66
2023-04-22T02:11:09.129Z,100961.06
2023-04-22T02:13:39.877Z,100962.56
2023-04-22T02:16:07.027Z,100941.63
2023-04-22T02:18:33.678Z,100961.44
2023-04-22T02:21:00.335Z,100948.81
2023-04-22T02:23:27.574Z,100949.50
2023-04-22T02:25:55.829Z,100931.94
2023-04-22T02:28:22.845Z,100913.28
2023-04-22T02:30:49.480Z,100968.75
2023-04-22T02:33:15.972Z,100958.50
2023-04-22T02:35:42.472Z,100945.47
2023-04-22T02:38:08.852Z,100940.50
2023-04-22T02:40:35.416Z,100937.88
2023-04-22T02:43:01.873Z,100934.75
2023-04-22T02:45:28.508Z,100921.41
2023-04-22T02:47:54.976Z,100881.50
2023-04-22T02:50:21.728Z,100929.28
2023-04-22T02:52:48.188Z,100892.44
2023-04-22T02:55:14.627Z,100902.44
2023-04-22T02:57:41.164Z,100939.53
2023-04-22T03:00:08.372Z,100896.13
2023-04-22T03:02:35.025Z,100933.91
2023-04-22T03:05:01.985Z,100906.41
2023-04-22T03:07:28.472Z,100929.16
2023-04-22T03:09:55.880Z,100923.53
2023-04-22T03:12:22.397Z,100913.00
2023-04-22T03:14:48.929Z,100901.06
2023-04-22T03:17:15.492Z,100875.66
2023-04-22T03:19:42.373Z,100903.72
2023-04-22T03:22:09.073Z,100900.91
2023-04-22T03:24:35.685Z,100898.13
2023-04-22T03:27:02.345Z,100893.63
2023-04-22T03:29:28.761Z,100874.91
2023-04-22T03:31:55.335Z,100872.13
2023-04-22T03:34:22.132Z,100909.34
2023-04-22T03:36:48.545Z,100895.44
2023-04-22T03:39:15.010Z,100906.38
2023-04-22T03:41:42.169Z,100902.03
2023-04-22T03:44:08.586Z,100899.22
2023-04-22T03:46:35.058Z,100895.56
2023-04-22T03:49:01.662Z,100888.41
2023-04-22T03:51:28.984Z,100860.59
2023-04-22T03:53:55.636Z,100851.50
2023-04-22T03:56:22.244Z,100824.25
2023-04-22T03:58:48.634Z,100852.91
2023-04-22T04:01:15.058Z,100845.16
2023-04-22T04:03:41.953Z,100885.16
2023-04-22T04:06:09.462Z,100872.25
2023-04-22T04:08:35.896Z,100870.28
2023-04-22T04:11:02.303Z,100866.94
2023-04-22T04:13:32.137Z,100827.63
2023-04-22T04:16:01.508Z,100839.13
2023-04-22T04:18:29.508Z,100870.00
2023-04-22T04:20:56.467Z,100847.69
2023-04-22T04:23:23.339Z,100856.56
2023-04-22T04:25:49.911Z,100861.56
2023-04-22T04:28:17.601Z,100852.91
2023-04-22T04:30:44.072Z,100862.41
2023-04-22T04:33:12.492Z,100855.25
2023-04-22T04:35:39.368Z,100842.38
2023-04-22T04:38:06.159Z,100842.34
2023-04-22T04:40:35.883Z,100843.88
2023-04-22T04:43:02.559Z,100848.25
2023-04-22T04:45:30.083Z,100848.34
2023-04-22T04:47:56.775Z,100836.69
2023-04-22T04:50:23.809Z,100842.31
2023-04-22T04:52:50.832Z,100833.19
2023-04-22T04:55:19.078Z,100841.00
2023-04-22T04:57:46.356Z,100835.53
2023-04-22T05:00:14.177Z,100801.66
2023-04-22T05:02:41.257Z,100825.94
2023-04-22T05:05:09.010Z,100840.78
2023-04-22T05:07:35.561Z,100809.75
2023-04-22T05:10:03.001Z,100831.84
2023-04-22T05:12:32.960Z,100838.44
2023-04-22T05:15:02.850Z,100830.50
2023-04-22T05:17:29.546Z,100816.63
2023-04-22T05:19:56.025Z,100845.25
2023-04-22T05:22:22.614Z,100787.41
2023-04-22T05:24:49.132Z,100843.75
2023-04-22T05:27:16.221Z,100817.09
2023-04-22T05:29:42.802Z,100833.47
2023-04-22T05:32:09.648Z,100821.50
2023-04-22T05:34:36.106Z,100816.28
2023-04-22T05:37:03.812Z,100791.66
2023-04-22T05:39:30.277Z,100811.91
2023-04-22T05:41:56.676Z,100733.28
2023-04-22T05:44:23.202Z,100774.75
2023-04-22T05:46:49.595Z,100780.44
2023-04-22T05:49:16.132Z,100775.50
2023-04-22T05:51:42.679Z,100809.91
2023-04-22T05:54:09.140Z,100807.78
2023-04-22T05:56:35.577Z,100816.06
2023-04-22T05:59:02.122Z,100817.44
2023-04-22T06:01:28.507Z,100780.38
2023-04-22T06:03:55.306Z,100797.56
2023-04-22T06:06:21.908Z,100812.50
2023-04-22T06:08:48.390Z,100809.00
2023-04-22T06:11:14.801Z,100816.06
2023-04-22T06:13:41.208Z,100813.06
2023-04-22T06:18:37.967Z,100806.03
2023-04-22T06:21:04.970Z,100806.72
2023-04-22T06:23:31.368Z,100813.66
2023-04-22T06:26:01.612Z,100778.06
2023-04-22T06:28:28.319Z,100795.69
2023-04-22T06:30:54.845Z,100801.69
2023-04-22T06:33:21.363Z,100764.47
2023-04-22T06:35:47.951Z,100776.03
2023-04-22T06:38:14.446Z,100808.72
2023-04-22T06:40:40.878Z,100814.22
2023-04-22T06:43:07.409Z,100810.34
2023-04-22T06:45:33.886Z,100780.28
2023-04-22T06:48:03.999Z,100807.78
2023-04-22T06:50:30.687Z,100727.09
2023-04-22T06:52:57.079Z,100762.75
2023-04-22T06:55:24.086Z,100796.25
2023-04-22T06:57:51.369Z,100802.16
2023-04-22T07:00:18.054Z,100801.81
2023-04-22T07:02:44.661Z,100795.88
2023-04-22T07:05:11.165Z,100790.19
2023-04-22T07:07:37.657Z,100807.00
2023-04-22T07:10:04.558Z,100805.81
2023-04-22T07:12:31.164Z,100797.91
2023-04-22T07:14:57.617Z,100789.06
2023-04-22T07:17:24.062Z,100793.25
2023-04-22T07:19:50.640Z,100799.94
2023-04-22T07:22:36.216Z,100761.91
2023-04-22T07:25:06.037Z,100809.72
2023-04-22T07:27:33.806Z,100778.66
2023-04-22T07:30:01.992Z,100772.22
2023-04-22T07:32:28.471Z,100789.03
2023-04-22T07:34:54.862Z,100796.88
2023-04-22T07:37:22.051Z,100797.31
2023-04-22T07:39:48.625Z,100774.25
2023-04-22T07:42:15.054Z,100782.78
2023-04-22T07:44:41.769Z,100781.84
2023-04-22T07:47:11.384Z,100768.56
2023-04-22T07:49:38.280Z,100752.16
2023-04-22T07:52:04.944Z,100777.47
2023-04-22T07:54:31.328Z,100776.81
2023-04-22T07:56:58.301Z,100771.75
2023-04-22T07:59:25.664Z,100777.78
2023-04-22T08:01:52.244Z,100777.44
2023-04-22T08:04:23.032Z,100773.34
2023-04-22T08:06:50.210Z,100755.81
2023-04-22T08:09:16.611Z,100754.25
2023-04-22T08:11:43.003Z,100768.06
2023-04-22T08:14:09.498Z,100765.34
2023-04-22T08:16:35.961Z,100753.94
2023-04-22T08:19:02.469Z,100725.75
2023-04-22T08:21:28.871Z,100751.66
2023-04-22T08:23:55.329Z,100756.94
2023-04-22T08:26:21.757Z,100754.03
2023-04-22T08:28:48.179Z,100762.03
2023-04-22T08:31:14.659Z,100716.59
2023-04-22T08:33:41.759Z,100721.28
2023-04-22T08:36:09.643Z,100755.16
2023-04-22T08:38:36.104Z,100749.38
2023-04-22T08:41:05.492Z,100733.97
2023-04-22T08:43:33.067Z,100714.34
2023-04-22T08:45:59.606Z,100740.50
2023-04-22T08:48:26.776Z,100735.94
2023-04-22T08:50:54.249Z,100734.09
2023-04-22T08:53:23.682Z,100731.41
2023-04-22T08:55:51.770Z,100740.81
2023-04-22T08:58:18.269Z,100717.03
2023-04-22T09:00:45.227Z,100739.56
2023-04-22T09:03:12.053Z,100750.03
2023-04-22T09:05:40.882Z,100737.94
2023-04-22T09:08:08.143Z,100703.53
2023-04-22T09:10:41.054Z,100726.84
2023-04-22T09:13:07.699Z,100701.19
2023-04-22T09:15:34.395Z,100752.84
2023-04-22T09:18:03.384Z,100704.25
2023-04-22T09:20:37.995Z,100718.13
2023-04-22T09:23:07.733Z,100736.84
2023-04-22T09:25:37.567Z,100743.09
2023-04-22T09:28:04.366Z,100743.81
2023-04-22T09:30:33.349Z,100701.69
2023-04-22T09:33:04.264Z,100706.94
2023-04-22T09:35:37.397Z,100727.69
2023-04-22T09:38:08.812Z,100692.41
2023-04-22T09:40:36.886Z,100727.41
2023-04-22T09:43:06.614Z,100732.44
2023-04-22T09:45:42.688Z,100724.72
2023-04-22T09:48:13.241Z,100728.28
2023-04-22T09:50:43.375Z,100723.97
2023-04-22T09:53:12.460Z,100715.63
2023-04-22T09:55:43.517Z,100679.59
2023-04-22T09:58:14.592Z,100682.88
2023-04-22T10:00:44.609Z,100687.22
2023-04-22T10:03:11.446Z,100708.88
2023-04-22T10:05:38.364Z,100697.13
2023-04-22T10:08:06.272Z,100715.25
2023-04-22T10:10:33.106Z,100654.75
2023-04-22T10:13:00.720Z,100700.16
2023-04-22T10:15:42.183Z,100674.22
2023-04-22T10:18:12.025Z,100673.88
2023-04-22T10:20:40.861Z,100673.59
2023-04-22T10:23:18.294Z,100669.41
2023-04-22T10:25:49.096Z,100659.72
2023-04-22T10:28:16.882Z,100634.31
2023-04-22T10:30:43.771Z,100675.31
2023-04-22T10:33:28.526Z,100669.63
2023-04-22T10:36:10.437Z,100667.78
2023-04-22T10:38:39.320Z,100663.97
2023-04-22T10:41:06.165Z,100639.69
2023-04-22T10:43:46.595Z,100611.84
2023-04-22T10:46:37.900Z,100661.19
2023-04-22T10:49:12.901Z,100616.63
2023-04-22T10:51:44.134Z,100646.78
2023-04-22T10:54:26.931Z,100647.22
2023-04-22T10:57:04.632Z,100638.19
2023-04-22T10:59:32.742Z,100638.78
2023-04-22T11:02:03.728Z,100630.88
2023-04-22T11:04:30.414Z,100627.47
2023-04-22T11:07:30.693Z,100616.41
2023-04-22T11:10:07.896Z,100621.91
2023-04-22T11:12:41.829Z,100628.22
2023-04-22T11:15:19.963Z,100623.34
2023-04-22T11:17:50.718Z,100588.94
2023-04-22T11:20:17.858Z,100605.25
2023-04-22T11:22:47.683Z,100606.34
2023-04-22T11:25:14.562Z,100603.44
2023-04-22T11:27:43.648Z,100605.88
2023-04-22T11:30:20.537Z,100607.91
2023-04-22T11:32:49.277Z,100596.66
2023-04-22T11:35:19.110Z,100594.78
2023-04-22T11:37:48.996Z,100599.16
2023-04-22T11:40:30.909Z,100560.69
2023-04-22T11:42:59.554Z,100531.78
2023-04-22T11:45:27.060Z,100581.34
2023-04-22T11:47:54.224Z,100572.00
2023-04-22T11:50:23.661Z,100573.66
2023-04-22T11:53:01.501Z,100555.78
2023-04-22T11:55:36.258Z,100562.44
2023-04-22T11:58:07.211Z,100519.78
2023-04-22T12:00:41.840Z,100566.28
2023-04-22T12:03:15.201Z,100566.91
2023-04-22T12:05:51.359Z,100559.19
2023-04-22T12:08:20.429Z,100546.84
2023-04-22T12:10:55.981Z,100507.25
2023-04-22T12:13:28.789Z,100551.53
2023-04-22T12:16:00.353Z,100543.81
2023-04-22T12:18:32.666Z,100550.16
2023-04-22T12:21:23.760Z,100548.75
2023-04-22T12:23:55.103Z,100541.63
2023-04-22T12:26:26.626Z,100543.78
2023-04-22T12:28:54.641Z,100528.59
2023-04-22T12:31:21.522Z,100534.91
2023-04-22T12:33:48.253Z,100529.03
2023-04-22T12:36:15.326Z,100539.13
2023-04-22T12:38:41.739Z,100487.81
2023-04-22T12:41:08.376Z,100524.06
2023-04-22T12:43:37.749Z,100505.84
2023-04-22T12:46:07.517Z,100522.56
2023-04-22T12:48:34.360Z,100516.72
2023-04-22T12:51:00.853Z,100503.56
2023-04-22T12:53:28.197Z,100510.09
2023-04-22T12:55:55.504Z,100503.72
2023-04-22T12:58:21.923Z,100450.78
2023-04-22T13:00:48.336Z,100487.13
2023-04-22T13:03:14.908Z,100495.34
2023-04-22T13:05:41.570Z,100473.53
2023-04-22T13:08:08.297Z,100435.56
2023-04-22T13:10:35.261Z,100483.09
2023-04-22T13:13:16.733Z,100451.78
2023-04-22T13:15:44.034Z,100436.91
2023-04-22T13:18:10.699Z,100465.03
2023-04-22T13:20:37.384Z,100481.00
2023-04-22T13:23:04.674Z,100472.97
2023-04-22T13:25:31.602Z,100465.25
2023-04-22T13:27:58.041Z,100465.63
2023-04-22T13:30:24.497Z,100431.16
2023-04-22T13:32:51.970Z,100471.97
2023-04-22T13:35:18.594Z,100462.66
2023-04-22T13:37:46.215Z,100454.38
2023-04-22T13:40:12.831Z,100436.41
2023-04-22T13:42:39.391Z,100444.78
2023-04-22T13:45:07.034Z,100385.53
2023-04-22T13:47:33.565Z,100444.59
2023-04-22T13:50:01.670Z,100447.44
2023-04-22T13:52:28.441Z,100434.06
2023-04-22T13:54:54.948Z,100433.84
2023-04-22T13:57:22.012Z,100429.50
2023-04-22T13:59:49.704Z,100439.94
2023-04-22T14:02:16.263Z,100431.41
2023-04-22T14:04:42.875Z,100422.28
2023-04-22T14:07:09.348Z,100425.03
2023-04-22T14:09:36.546Z,100400.22
2023-04-22T14:12:04.345Z,100417.25
2023-04-22T14:14:31.023Z,100414.69
2023-04-22T14:16:57.836Z,100400.91
2023-04-22T14:19:24.974Z,100417.66
2023-04-22T14:21:51.440Z,100400.22
2023-04-22T14:24:19.380Z,100402.97
2023-04-22T14:26:45.938Z,100403.47
2023-04-22T14:29:13.914Z,100403.41
2023-04-22T14:31:40.522Z,100396.53
2023-04-22T14:34:06.946Z,100367.47
2023-04-22T14:36:33.408Z,100365.06
2023-04-22T14:38:59.930Z,100375.94
2023-04-22T14:41:26.448Z,100383.41
2023-04-22T14:43:52.929Z,100360.97
2023-04-22T14:46:19.459Z,100378.56
2023-04-22T14:48:46.040Z,100367.91
2023-04-22T14:51:12.584Z,100358.81
2023-04-22T14:53:39.087Z,100365.34
2023-04-22T14:56:05.524Z,100333.47
2023-04-22T14:58:32.064Z,100314.69
2023-04-22T15:01:00.153Z,100350.44
2023-04-22T15:03:27.411Z,100347.06
2023-04-22T15:05:55.591Z,100305.22
2023-04-22T15:08:25.150Z,100342.34
2023-04-22T15:10:51.691Z,100347.78
2023-04-22T15:13:18.228Z,100347.53
2023-04-22T15:15:44.672Z,100269.69
2023-04-22T15:18:11.527Z,100330.16
2023-04-22T15:20:38.299Z,100320.03
2023-04-22T15:23:04.767Z,100337.88
2023-04-22T15:25:31.928Z,100290.06
2023-04-22T15:27:58.372Z,100286.56
2023-04-22T15:30:25.014Z,100267.66
2023-04-22T15:32:51.560Z,100305.97
2023-04-22T15:35:18.256Z,100290.81
2023-04-22T15:37:45.650Z,100314.00
2023-04-22T15:40:12.076Z,100304.69
2023-04-22T15:42:41.654Z,100308.28
2023-04-22T15:45:08.674Z,100307.16
2023-04-22T15:47:36.062Z,100306.25
2023-04-22T15:50:08.599Z,100300.22
2023-04-22T15:52:35.979Z,100299.56
2023-04-22T15:55:02.459Z,100294.59
2023-04-22T15:57:33.157Z,100285.47
2023-04-22T16:00:10.919Z,100301.03
2023-04-22T16:02:39.209Z,100287.19
2023-04-22T16:05:06.014Z,100288.00
2023-04-22T16:07:32.452Z,100293.63
2023-04-22T16:09:59.319Z,100289.94
2023-04-22T16:12:25.720Z,100232.69
2023-04-22T16:14:52.184Z,100288.97
2023-04-22T16:17:20.807Z,100263.53
2023-04-22T16:19:47.504Z,100219.22
2023-04-22T16:22:13.892Z,100283.56
2023-04-22T16:24:43.310Z,100240.81
2023-04-22T16:27:10.710Z,100274.69
2023-04-22T16:29:37.184Z,100273.78
2023-04-22T16:32:03.851Z,100268.81
2023-04-22T16:34:30.662Z,100271.97
2023-04-22T16:36:57.204Z,100245.47
2023-04-22T16:39:23.606Z,100240.44
2023-04-22T16:41:50.138Z,100253.03
2023-04-22T16:44:16.692Z,100261.81
2023-04-22T16:46:43.258Z,100258.50
2023-04-22T16:49:10.528Z,100246.72
2023-04-22T16:51:37.415Z,100255.66
2023-04-22T16:54:04.183Z,100251.59
2023-04-22T16:56:30.640Z,100256.06
2023-04-22T16:58:57.039Z,100243.50
2023-04-22T17:01:26.407Z,100216.91
2023-04-22T17:03:53.098Z,100200.53
2023-04-22T17:06:19.652Z,100236.28
2023-04-22T17:08:46.072Z,100216.00
2023-04-22T17:11:12.474Z,100241.97
2023-04-22T17:13:39.002Z,100227.56
2023-04-22T17:16:06.505Z,100179.47
2023-04-22T17:18:33.167Z,100226.69
2023-04-22T17:20:59.617Z,100247.91
2023-04-22T17:23:26.918Z,100209.25
2023-04-22T17:25:53.513Z,100237.38
2023-04-22T17:28:19.960Z,100230.03
2023-04-22T17:30:46.630Z,100228.72
2023-04-22T17:33:13.085Z,100230.53
2023-04-22T17:35:39.713Z,100223.84
2023-04-22T17:38:06.349Z,100213.00
2023-04-22T17:40:33.028Z,100231.66
2023-04-22T17:42:59.542Z,100220.31
2023-04-22T17:45:26.125Z,100210.44
2023-04-22T17:47:52.672Z,100223.69
2023-04-22T17:50:19.657Z,100231.09
2023-04-22T17:52:46.229Z,100220.34
2023-04-22T17:55:12.682Z,100215.53
2023-04-22T17:57:39.346Z,100230.84
2023-04-22T18:00:06.556Z,100232.06
2023-04-22T18:02:33.190Z,100237.56
2023-04-22T18:04:59.760Z,100220.38
2023-04-22T18:07:26.246Z,100227.84
2023-04-22T18:09:52.653Z,100228.69
2023-04-22T18:12:23.979Z,100230.50
2023-04-22T18:14:50.381Z,100227.78
2023-04-22T18:17:20.072Z,100173.47
2023-04-22T18:19:50.929Z,100197.59
2023-04-22T18:22:18.520Z,100221.03
2023-04-22T18:24:45.006Z,100218.06
2023-04-22T18:27:11.531Z,100208.59
2023-04-22T18:29:38.537Z,100218.63
2023-04-22T18:32:05.489Z,100193.47
2023-04-22T18:34:32.036Z,100238.84
2023-04-22T18:36:58.427Z,100189.88
2023-04-22T18:39:24.876Z,100247.94
2023-04-22T18:41:51.839Z,100246.28
2023-04-22T18:44:18.840Z,100250.56
2023-04-22T18:46:45.366Z,100250.19
2023-04-22T18:49:12.084Z,100224.59
2023-04-22T18:51:41.294Z,100246.16
2023-04-22T18:54:08.643Z,100255.84
2023-04-22T18:56:35.207Z,100248.84
2023-04-22T18:59:01.677Z,100257.47
2023-04-22T19:01:28.694Z,100218.38
2023-04-22T19:03:55.310Z,100259.22
2023-04-22T19:06:21.762Z,100266.78
2023-04-22T19:08:48.832Z,100264.97
2023-04-22T19:11:17.202Z,100233.06
2023-04-22T19:13:44.061Z,100290.66
2023-04-22T19:16:10.905Z,100305.22
2023-04-22T19:18:37.641Z,100281.56
2023-04-22T19:21:04.991Z,100285.22
2023-04-22T19:23:31.489Z,100269.84
2023-04-22T19:25:57.947Z,100280.75
2023-04-22T19:28:24.407Z,100270.78
2023-04-22T19:30:51.670Z,100273.03
2023-04-22T19:33:18.350Z,100267.78
2023-04-22T19:35:44.800Z,100231.31
2023-04-22T19:38:12.130Z,100259.81
2023-04-22T19:40:38.640Z,100247.41
2023-04-22T19:43:05.344Z,100263.44
2023-04-22T19:45:32.131Z,100243.94
2023-04-22T19:47:58.810Z,100263.03
2023-04-22T19:50:25.846Z,100260.72
2023-04-22T19:53:03.367Z,100296.19
2023-04-22T19:55:30.481Z,100341.94
2023-04-22T19:57:58.071Z,100361.28
2023-04-22T20:00:24.983Z,100362.50
2023-04-22T20:02:51.945Z,100367.31
2023-04-22T20:05:19.238Z,100323.81
2023-04-22T20:07:47.363Z,100363.78
2023-04-22T20:10:14.336Z,100355.09
2023-04-22T20:12:41.387Z,100342.59
2023-04-22T20:15:09.143Z,100359.91
2023-04-22T20:17:38.725Z,100364.50
2023-04-22T20:20:07.651Z,100362.44
2023-04-22T20:22:34.878Z,100282.31
2023-04-22T20:25:04.656Z,100357.22
2023-04-22T20:27:32.528Z,100358.66
2023-04-22T20:30:00.331Z,100361.38
2023-04-22T20:32:28.412Z,100354.72
2023-04-22T20:34:55.872Z,100349.53
2023-04-22T20:37:23.681Z,100351.19
2023-04-22T20:39:51.423Z,100353.91
2023-04-22T20:42:19.662Z,100350.34
2023-04-22T20:44:46.318Z,100341.41
2023-04-22T20:47:13.698Z,100344.13
2023-04-22T20:49:42.378Z,100338.09
2023-04-22T20:52:10.830Z,100345.34
2023-04-22T20:54:38.114Z,100337.44
2023-04-22T20:57:05.987Z,100332.91
2023-04-22T20:59:33.547Z,100344.94
2023-04-22T21:02:00.640Z,100344.13
2023-04-22T21:04:27.869Z,100345.16
2023-04-22T21:06:55.585Z,100347.03
2023-04-22T21:09:24.708Z,100351.63
2023-04-22T21:11:54.657Z,100354.13
2023-04-22T21:14:22.198Z,100346.63
2023-04-22T21:17:17.304Z,100355.97
2023-04-22T21:19:48.877Z,100348.06
2023-04-22T21:22:19.430Z,100358.88
2023-04-22T21:24:48.385Z,100355.34
2023-04-22T21:27:16.608Z,100353.06
2023-04-22T21:29:43.363Z,100321.59
2023-04-22T21:32:10.175Z,100356.38
2023-04-22T21:34:37.763Z,100355.94
2023-04-22T21:37:05.391Z,100328.69
2023-04-22T21:39:31.885Z,100291.81
2023-04-22T21:41:58.575Z,100322.19
2023-04-22T21:44:25.090Z,100357.75
2023-04-22T21:46:51.585Z,100357.75
2023-04-22T21:49:18.417Z,100298.06
2023-04-22T21:51:44.944Z,100335.25
2023-04-22T21:54:11.465Z,100349.84
2023-04-22T21:56:37.921Z,100354.00
2023-04-22T21:59:04.424Z,100348.16
2023-04-22T22:01:30.961Z,100321.50
2023-04-22T22:03:57.561Z,100299.22
2023-04-22T22:06:24.127Z,100348.53
2023-04-22T22:08:50.552Z,100357.06
2023-04-22T22:11:27.495Z,100357.47
2023-04-22T22:13:56.596Z,100341.03
2023-04-22T22:16:23.394Z,100357.22
2023-04-22T22:18:50.588Z,100344.31
2023-04-22T22:21:17.333Z,100359.09
2023-04-22T22:23:43.757Z,100356.78
2023-04-22T22:26:10.313Z,100334.25
2023-04-22T22:28:36.829Z,100350.91
2023-04-22T22:31:03.322Z,100352.34
2023-04-22T22:33:29.850Z,100347.34
2023-04-22T22:35:56.695Z,100348.78
2023-04-22T22:38:23.250Z,100346.28
2023-04-22T22:40:49.684Z,100333.53
2023-04-22T22:43:16.549Z,100351.03
2023-04-22T22:45:43.118Z,100344.78
2023-04-22T22:48:09.721Z,100328.31
2023-04-22T22:50:36.299Z,100350.81
2023-04-22T22:53:02.789Z,100344.78
2023-04-22T22:55:29.248Z,100350.38
2023-04-22T22:57:55.717Z,100307.06
2023-04-22T23:00:22.250Z,100344.50
2023-04-22T23:02:49.004Z,100324.91
2023-04-22T23:05:15.617Z,100344.06
2023-04-22T23:07:42.055Z,100320.34
2023-04-22T23:10:09.225Z,100337.63
2023-04-22T23:12:35.688Z,100295.56
2023-04-22T23:15:02.328Z,100330.13
2023-04-22T23:17:28.838Z,100313.88
2023-04-22T23:19:55.743Z,100298.25
2023-04-22T23:22:23.290Z,100327.16
2023-04-22T23:24:50.313Z,100320.34
2023-04-22T23:27:17.465Z,100322.59
2023-04-22T23:29:44.323Z,100277.81
2023-04-22T23:32:14.938Z,100318.88
2023-04-22T23:34:44.814Z,100336.06
2023-04-22T23:37:13.526Z,100305.50
2023-04-22T23:39:41.854Z,100298.88
2023-04-22T23:42:08.529Z,100318.44
2023-04-22T23:44:34.958Z,100318.03
2023-04-22T23:47:01.634Z,100294.94
2023-04-22T23:49:28.854Z,100293.69
2023-04-22T23:51:55.806Z,100294.72
2023-04-22T23:54:22.531Z,100312.44
2023-04-22T23:56:49.443Z,100310.38
2023-04-22T23:59:16.156Z,100302.88
